sensor_id;sensor_type;location;lat;lon;timestamp;P1;durP1;ratioP1;P2;durP2;ratioP2
19339;SDS011;9804;52.350;6.684;2023-11-19T00:00:05;29.88;;;20.92;;
19339;SDS011;9804;52.350;6.684;2023-11-19T00:02:36;29.90;;;20.35;;
19339;SDS011;9804;52.350;6.684;2023-11-19T00:05:01;31.98;;;21.90;;
19339;SDS011;9804;52.350;6.684;2023-11-19T00:07:27;31.30;;;21.33;;
19339;SDS011;9804;52.350;6.684;2023-11-19T00:09:52;33.08;;;22.35;;
19339;SDS011;9804;52.350;6.684;2023-11-19T00:12:20;33.53;;;22.38;;
19339;SDS011;9804;52.350;6.684;2023-11-19T00:14:45;34.55;;;22.20;;
19339;SDS011;9804;52.350;6.684;2023-11-19T00:17:10;31.17;;;23.80;;
19339;SDS011;9804;52.350;6.684;2023-11-19T00:19:36;31.95;;;23.70;;
19339;SDS011;9804;52.350;6.684;2023-11-19T00:22:01;36.45;;;23.38;;
19339;SDS011;9804;52.350;6.684;2023-11-19T00:24:28;35.53;;;23.25;;
19339;SDS011;9804;52.350;6.684;2023-11-19T00:26:55;41.05;;;25.85;;
19339;SDS011;9804;52.350;6.684;2023-11-19T00:29:21;45.70;;;24.58;;
19339;SDS011;9804;52.350;6.684;2023-11-19T00:31:46;39.15;;;25.60;;
19339;SDS011;9804;52.350;6.684;2023-11-19T00:34:12;41.42;;;26.50;;
19339;SDS011;9804;52.350;6.684;2023-11-19T00:36:38;44.80;;;28.67;;
19339;SDS011;9804;52.350;6.684;2023-11-19T00:39:04;45.65;;;28.63;;
19339;SDS011;9804;52.350;6.684;2023-11-19T00:41:30;51.25;;;29.90;;
19339;SDS011;9804;52.350;6.684;2023-11-19T00:43:56;43.97;;;28.15;;
19339;SDS011;9804;52.350;6.684;2023-11-19T00:46:21;59.38;;;30.15;;
19339;SDS011;9804;52.350;6.684;2023-11-19T00:48:46;43.78;;;29.27;;
19339;SDS011;9804;52.350;6.684;2023-11-19T00:51:12;51.03;;;28.23;;
19339;SDS011;9804;52.350;6.684;2023-11-19T00:53:38;50.22;;;28.95;;
19339;SDS011;9804;52.350;6.684;2023-11-19T00:56:03;48.30;;;28.55;;
19339;SDS011;9804;52.350;6.684;2023-11-19T00:58:29;46.88;;;28.60;;
19339;SDS011;9804;52.350;6.684;2023-11-19T01:00:54;51.30;;;29.05;;
19339;SDS011;9804;52.350;6.684;2023-11-19T01:03:22;50.67;;;27.95;;
19339;SDS011;9804;52.350;6.684;2023-11-19T01:05:47;50.42;;;28.08;;
19339;SDS011;9804;52.350;6.684;2023-11-19T01:08:13;46.70;;;27.60;;
19339;SDS011;9804;52.350;6.684;2023-11-19T01:10:39;40.58;;;27.08;;
19339;SDS011;9804;52.350;6.684;2023-11-19T01:13:05;46.22;;;27.65;;
19339;SDS011;9804;52.350;6.684;2023-11-19T01:15:31;45.70;;;26.30;;
19339;SDS011;9804;52.350;6.684;2023-11-19T01:17:57;43.67;;;25.98;;
19339;SDS011;9804;52.350;6.684;2023-11-19T01:20:22;51.20;;;27.17;;
19339;SDS011;9804;52.350;6.684;2023-11-19T01:22:49;44.97;;;23.50;;
19339;SDS011;9804;52.350;6.684;2023-11-19T01:25:15;44.30;;;25.33;;
19339;SDS011;9804;52.350;6.684;2023-11-19T01:27:40;42.03;;;24.65;;
19339;SDS011;9804;52.350;6.684;2023-11-19T01:30:06;46.00;;;23.80;;
19339;SDS011;9804;52.350;6.684;2023-11-19T01:32:35;50.38;;;25.08;;
19339;SDS011;9804;52.350;6.684;2023-11-19T01:35:01;44.00;;;24.20;;
19339;SDS011;9804;52.350;6.684;2023-11-19T01:37:28;40.90;;;24.60;;
19339;SDS011;9804;52.350;6.684;2023-11-19T01:39:53;48.15;;;24.92;;
19339;SDS011;9804;52.350;6.684;2023-11-19T01:42:19;38.72;;;23.92;;
19339;SDS011;9804;52.350;6.684;2023-11-19T01:44:54;40.35;;;22.67;;
19339;SDS011;9804;52.350;6.684;2023-11-19T01:47:22;43.15;;;22.40;;
19339;SDS011;9804;52.350;6.684;2023-11-19T01:49:47;40.28;;;22.55;;
19339;SDS011;9804;52.350;6.684;2023-11-19T01:52:13;34.05;;;22.40;;
19339;SDS011;9804;52.350;6.684;2023-11-19T01:54:38;42.80;;;21.35;;
19339;SDS011;9804;52.350;6.684;2023-11-19T01:57:04;39.33;;;20.27;;
19339;SDS011;9804;52.350;6.684;2023-11-19T01:59:29;39.13;;;18.17;;
19339;SDS011;9804;52.350;6.684;2023-11-19T02:01:54;38.65;;;18.35;;
19339;SDS011;9804;52.350;6.684;2023-11-19T02:04:22;31.77;;;16.33;;
19339;SDS011;9804;52.350;6.684;2023-11-19T02:06:48;34.28;;;15.75;;
19339;SDS011;9804;52.350;6.684;2023-11-19T02:09:14;34.40;;;15.13;;
19339;SDS011;9804;52.350;6.684;2023-11-19T02:11:44;36.15;;;14.63;;
19339;SDS011;9804;52.350;6.684;2023-11-19T02:14:10;35.63;;;14.70;;
19339;SDS011;9804;52.350;6.684;2023-11-19T02:16:36;39.22;;;14.88;;
19339;SDS011;9804;52.350;6.684;2023-11-19T02:19:01;31.55;;;13.27;;
19339;SDS011;9804;52.350;6.684;2023-11-19T02:21:27;32.25;;;13.30;;
19339;SDS011;9804;52.350;6.684;2023-11-19T02:23:52;29.77;;;13.82;;
19339;SDS011;9804;52.350;6.684;2023-11-19T02:26:20;31.92;;;12.15;;
19339;SDS011;9804;52.350;6.684;2023-11-19T02:28:48;36.33;;;11.82;;
19339;SDS011;9804;52.350;6.684;2023-11-19T02:31:14;30.83;;;11.40;;
19339;SDS011;9804;52.350;6.684;2023-11-19T02:33:39;43.08;;;11.02;;
19339;SDS011;9804;52.350;6.684;2023-11-19T02:36:05;30.92;;;10.25;;
19339;SDS011;9804;52.350;6.684;2023-11-19T02:38:32;35.40;;;10.75;;
19339;SDS011;9804;52.350;6.684;2023-11-19T02:40:58;29.42;;;9.13;;
19339;SDS011;9804;52.350;6.684;2023-11-19T02:43:23;25.85;;;8.10;;
19339;SDS011;9804;52.350;6.684;2023-11-19T02:45:49;35.42;;;9.15;;
19339;SDS011;9804;52.350;6.684;2023-11-19T02:48:15;40.63;;;8.88;;
19339;SDS011;9804;52.350;6.684;2023-11-19T02:50:41;29.50;;;7.80;;
19339;SDS011;9804;52.350;6.684;2023-11-19T02:53:07;33.75;;;8.45;;
19339;SDS011;9804;52.350;6.684;2023-11-19T02:55:32;34.45;;;8.55;;
19339;SDS011;9804;52.350;6.684;2023-11-19T02:58:02;28.67;;;7.38;;
19339;SDS011;9804;52.350;6.684;2023-11-19T03:00:34;38.95;;;7.65;;
19339;SDS011;9804;52.350;6.684;2023-11-19T03:03:02;33.60;;;7.35;;
19339;SDS011;9804;52.350;6.684;2023-11-19T03:05:42;30.52;;;7.63;;
19339;SDS011;9804;52.350;6.684;2023-11-19T03:08:09;28.98;;;7.15;;
19339;SDS011;9804;52.350;6.684;2023-11-19T03:10:35;27.85;;;7.57;;
19339;SDS011;9804;52.350;6.684;2023-11-19T03:13:01;32.30;;;7.57;;
19339;SDS011;9804;52.350;6.684;2023-11-19T03:15:28;29.83;;;6.63;;
19339;SDS011;9804;52.350;6.684;2023-11-19T03:17:53;29.63;;;7.00;;
19339;SDS011;9804;52.350;6.684;2023-11-19T03:20:19;37.58;;;6.60;;
19339;SDS011;9804;52.350;6.684;2023-11-19T03:22:45;34.70;;;7.00;;
19339;SDS011;9804;52.350;6.684;2023-11-19T03:25:11;30.40;;;7.20;;
19339;SDS011;9804;52.350;6.684;2023-11-19T03:27:37;29.73;;;5.82;;
19339;SDS011;9804;52.350;6.684;2023-11-19T03:30:12;37.47;;;6.78;;
19339;SDS011;9804;52.350;6.684;2023-11-19T03:32:37;38.88;;;7.40;;
19339;SDS011;9804;52.350;6.684;2023-11-19T03:35:04;40.80;;;7.60;;
19339;SDS011;9804;52.350;6.684;2023-11-19T03:37:32;42.67;;;7.50;;
19339;SDS011;9804;52.350;6.684;2023-11-19T03:39:57;44.13;;;7.05;;
19339;SDS011;9804;52.350;6.684;2023-11-19T03:42:25;39.17;;;6.85;;
19339;SDS011;9804;52.350;6.684;2023-11-19T03:44:52;34.33;;;6.65;;
19339;SDS011;9804;52.350;6.684;2023-11-19T03:47:18;43.58;;;7.03;;
19339;SDS011;9804;52.350;6.684;2023-11-19T03:49:47;46.85;;;6.68;;
19339;SDS011;9804;52.350;6.684;2023-11-19T03:52:13;33.40;;;6.25;;
19339;SDS011;9804;52.350;6.684;2023-11-19T03:54:39;36.88;;;6.53;;
19339;SDS011;9804;52.350;6.684;2023-11-19T03:57:04;35.30;;;5.78;;
19339;SDS011;9804;52.350;6.684;2023-11-19T03:59:30;37.55;;;6.07;;
19339;SDS011;9804;52.350;6.684;2023-11-19T04:01:55;39.70;;;6.68;;
19339;SDS011;9804;52.350;6.684;2023-11-19T04:04:21;51.08;;;7.68;;
19339;SDS011;9804;52.350;6.684;2023-11-19T04:06:47;32.53;;;6.28;;
19339;SDS011;9804;52.350;6.684;2023-11-19T04:09:13;32.70;;;6.50;;
19339;SDS011;9804;52.350;6.684;2023-11-19T04:11:38;41.33;;;7.35;;
19339;SDS011;9804;52.350;6.684;2023-11-19T04:14:05;45.60;;;6.63;;
19339;SDS011;9804;52.350;6.684;2023-11-19T04:16:30;31.17;;;6.47;;
19339;SDS011;9804;52.350;6.684;2023-11-19T04:18:56;38.85;;;7.18;;
19339;SDS011;9804;52.350;6.684;2023-11-19T04:21:21;37.20;;;7.93;;
19339;SDS011;9804;52.350;6.684;2023-11-19T04:23:48;38.28;;;6.70;;
19339;SDS011;9804;52.350;6.684;2023-11-19T04:26:14;39.53;;;6.95;;
19339;SDS011;9804;52.350;6.684;2023-11-19T04:28:40;41.83;;;7.05;;
19339;SDS011;9804;52.350;6.684;2023-11-19T04:31:06;43.40;;;6.93;;
19339;SDS011;9804;52.350;6.684;2023-11-19T04:33:31;40.13;;;6.70;;
19339;SDS011;9804;52.350;6.684;2023-11-19T04:35:56;48.90;;;8.23;;
19339;SDS011;9804;52.350;6.684;2023-11-19T04:38:22;49.25;;;7.72;;
19339;SDS011;9804;52.350;6.684;2023-11-19T04:40:47;44.45;;;7.22;;
19339;SDS011;9804;52.350;6.684;2023-11-19T04:43:12;35.80;;;7.50;;
19339;SDS011;9804;52.350;6.684;2023-11-19T04:45:38;38.58;;;7.32;;
19339;SDS011;9804;52.350;6.684;2023-11-19T04:48:04;40.92;;;7.35;;
19339;SDS011;9804;52.350;6.684;2023-11-19T04:50:30;48.95;;;8.00;;
19339;SDS011;9804;52.350;6.684;2023-11-19T04:52:55;47.08;;;7.70;;
19339;SDS011;9804;52.350;6.684;2023-11-19T04:55:21;48.40;;;7.15;;
19339;SDS011;9804;52.350;6.684;2023-11-19T04:57:46;42.75;;;7.32;;
19339;SDS011;9804;52.350;6.684;2023-11-19T05:00:12;44.85;;;6.90;;
19339;SDS011;9804;52.350;6.684;2023-11-19T05:02:38;41.83;;;7.45;;
19339;SDS011;9804;52.350;6.684;2023-11-19T05:05:04;57.42;;;6.97;;
19339;SDS011;9804;52.350;6.684;2023-11-19T05:07:30;52.92;;;7.30;;
19339;SDS011;9804;52.350;6.684;2023-11-19T05:09:55;49.90;;;7.00;;
19339;SDS011;9804;52.350;6.684;2023-11-19T05:12:21;46.17;;;6.63;;
19339;SDS011;9804;52.350;6.684;2023-11-19T05:14:46;50.72;;;7.45;;
19339;SDS011;9804;52.350;6.684;2023-11-19T05:17:15;52.85;;;7.32;;
19339;SDS011;9804;52.350;6.684;2023-11-19T05:19:42;49.65;;;7.03;;
19339;SDS011;9804;52.350;6.684;2023-11-19T05:22:08;57.15;;;7.47;;
19339;SDS011;9804;52.350;6.684;2023-11-19T05:24:33;56.10;;;7.75;;
19339;SDS011;9804;52.350;6.684;2023-11-19T05:26:59;50.92;;;8.43;;
19339;SDS011;9804;52.350;6.684;2023-11-19T05:29:24;46.25;;;9.35;;
19339;SDS011;9804;52.350;6.684;2023-11-19T05:31:50;49.05;;;7.05;;
19339;SDS011;9804;52.350;6.684;2023-11-19T05:34:15;45.50;;;8.00;;
19339;SDS011;9804;52.350;6.684;2023-11-19T05:36:40;42.38;;;7.07;;
19339;SDS011;9804;52.350;6.684;2023-11-19T05:39:06;53.28;;;7.88;;
19339;SDS011;9804;52.350;6.684;2023-11-19T05:41:31;53.83;;;8.05;;
19339;SDS011;9804;52.350;6.684;2023-11-19T05:43:56;43.88;;;7.35;;
19339;SDS011;9804;52.350;6.684;2023-11-19T05:46:22;51.45;;;7.18;;
19339;SDS011;9804;52.350;6.684;2023-11-19T05:48:47;47.10;;;6.70;;
19339;SDS011;9804;52.350;6.684;2023-11-19T05:51:13;46.33;;;8.27;;
19339;SDS011;9804;52.350;6.684;2023-11-19T05:53:40;49.13;;;7.90;;
19339;SDS011;9804;52.350;6.684;2023-11-19T05:56:05;48.65;;;6.10;;
19339;SDS011;9804;52.350;6.684;2023-11-19T05:58:34;46.28;;;8.35;;
19339;SDS011;9804;52.350;6.684;2023-11-19T06:01:00;46.78;;;7.65;;
19339;SDS011;9804;52.350;6.684;2023-11-19T06:03:26;55.63;;;8.55;;
19339;SDS011;9804;52.350;6.684;2023-11-19T06:05:52;50.63;;;7.45;;
19339;SDS011;9804;52.350;6.684;2023-11-19T06:08:19;42.92;;;7.95;;
19339;SDS011;9804;52.350;6.684;2023-11-19T06:10:46;47.50;;;6.88;;
19339;SDS011;9804;52.350;6.684;2023-11-19T06:13:14;40.35;;;6.95;;
19339;SDS011;9804;52.350;6.684;2023-11-19T06:15:42;57.20;;;8.32;;
19339;SDS011;9804;52.350;6.684;2023-11-19T06:18:08;49.53;;;7.57;;
19339;SDS011;9804;52.350;6.684;2023-11-19T06:20:33;55.00;;;7.57;;
19339;SDS011;9804;52.350;6.684;2023-11-19T06:22:59;52.05;;;7.68;;
19339;SDS011;9804;52.350;6.684;2023-11-19T06:25:25;46.92;;;7.20;;
19339;SDS011;9804;52.350;6.684;2023-11-19T06:27:51;45.28;;;6.82;;
19339;SDS011;9804;52.350;6.684;2023-11-19T06:30:17;51.47;;;7.93;;
19339;SDS011;9804;52.350;6.684;2023-11-19T06:32:42;46.35;;;7.07;;
19339;SDS011;9804;52.350;6.684;2023-11-19T06:35:08;48.42;;;7.28;;
19339;SDS011;9804;52.350;6.684;2023-11-19T06:37:34;49.35;;;6.93;;
19339;SDS011;9804;52.350;6.684;2023-11-19T06:40:00;59.38;;;8.00;;
19339;SDS011;9804;52.350;6.684;2023-11-19T06:42:26;55.58;;;6.18;;
19339;SDS011;9804;52.350;6.684;2023-11-19T06:44:51;44.35;;;8.07;;
19339;SDS011;9804;52.350;6.684;2023-11-19T06:47:17;51.75;;;7.55;;
19339;SDS011;9804;52.350;6.684;2023-11-19T06:49:45;43.28;;;6.13;;
19339;SDS011;9804;52.350;6.684;2023-11-19T06:52:11;46.40;;;6.68;;
19339;SDS011;9804;52.350;6.684;2023-11-19T06:54:38;44.78;;;7.63;;
19339;SDS011;9804;52.350;6.684;2023-11-19T06:57:04;56.78;;;7.35;;
19339;SDS011;9804;52.350;6.684;2023-11-19T06:59:30;52.60;;;7.00;;
19339;SDS011;9804;52.350;6.684;2023-11-19T07:01:55;56.45;;;7.10;;
19339;SDS011;9804;52.350;6.684;2023-11-19T07:04:21;49.85;;;7.85;;
19339;SDS011;9804;52.350;6.684;2023-11-19T07:06:47;49.00;;;7.30;;
19339;SDS011;9804;52.350;6.684;2023-11-19T07:09:13;51.75;;;8.25;;
19339;SDS011;9804;52.350;6.684;2023-11-19T07:11:39;37.60;;;6.65;;
19339;SDS011;9804;52.350;6.684;2023-11-19T07:14:08;48.92;;;6.97;;
19339;SDS011;9804;52.350;6.684;2023-11-19T07:16:34;46.67;;;6.82;;
19339;SDS011;9804;52.350;6.684;2023-11-19T07:19:00;45.17;;;7.82;;
19339;SDS011;9804;52.350;6.684;2023-11-19T07:21:26;54.40;;;7.38;;
19339;SDS011;9804;52.350;6.684;2023-11-19T07:23:53;51.45;;;8.15;;
19339;SDS011;9804;52.350;6.684;2023-11-19T07:26:19;43.72;;;8.82;;
19339;SDS011;9804;52.350;6.684;2023-11-19T07:28:44;45.97;;;7.55;;
19339;SDS011;9804;52.350;6.684;2023-11-19T07:31:10;43.35;;;7.30;;
19339;SDS011;9804;52.350;6.684;2023-11-19T07:33:35;44.08;;;6.78;;
19339;SDS011;9804;52.350;6.684;2023-11-19T07:36:01;48.38;;;8.00;;
19339;SDS011;9804;52.350;6.684;2023-11-19T07:38:26;47.95;;;7.65;;
19339;SDS011;9804;52.350;6.684;2023-11-19T07:40:52;46.78;;;6.60;;
19339;SDS011;9804;52.350;6.684;2023-11-19T07:43:17;46.05;;;7.15;;
19339;SDS011;9804;52.350;6.684;2023-11-19T07:45:43;45.97;;;7.13;;
19339;SDS011;9804;52.350;6.684;2023-11-19T07:48:10;45.78;;;7.50;;
19339;SDS011;9804;52.350;6.684;2023-11-19T07:50:38;52.13;;;7.72;;
19339;SDS011;9804;52.350;6.684;2023-11-19T07:53:05;47.38;;;6.55;;
19339;SDS011;9804;52.350;6.684;2023-11-19T07:55:32;43.55;;;6.82;;
19339;SDS011;9804;52.350;6.684;2023-11-19T07:57:57;52.85;;;6.88;;
19339;SDS011;9804;52.350;6.684;2023-11-19T08:00:23;41.90;;;6.82;;
19339;SDS011;9804;52.350;6.684;2023-11-19T08:02:48;50.13;;;6.90;;
19339;SDS011;9804;52.350;6.684;2023-11-19T08:05:14;50.08;;;7.60;;
19339;SDS011;9804;52.350;6.684;2023-11-19T08:07:39;44.88;;;6.80;;
19339;SDS011;9804;52.350;6.684;2023-11-19T08:10:04;53.72;;;7.88;;
19339;SDS011;9804;52.350;6.684;2023-11-19T08:12:30;46.90;;;7.85;;
19339;SDS011;9804;52.350;6.684;2023-11-19T08:14:56;38.83;;;6.40;;
19339;SDS011;9804;52.350;6.684;2023-11-19T08:17:23;53.22;;;7.55;;
19339;SDS011;9804;52.350;6.684;2023-11-19T08:19:49;44.28;;;7.05;;
19339;SDS011;9804;52.350;6.684;2023-11-19T08:22:14;54.20;;;7.65;;
19339;SDS011;9804;52.350;6.684;2023-11-19T08:24:41;50.08;;;6.63;;
19339;SDS011;9804;52.350;6.684;2023-11-19T08:27:07;44.08;;;6.78;;
19339;SDS011;9804;52.350;6.684;2023-11-19T08:29:32;49.65;;;7.00;;
19339;SDS011;9804;52.350;6.684;2023-11-19T08:31:59;51.42;;;7.70;;
19339;SDS011;9804;52.350;6.684;2023-11-19T08:34:26;46.72;;;7.45;;
19339;SDS011;9804;52.350;6.684;2023-11-19T08:36:52;48.70;;;6.95;;
19339;SDS011;9804;52.350;6.684;2023-11-19T08:39:20;51.65;;;7.15;;
19339;SDS011;9804;52.350;6.684;2023-11-19T08:41:47;48.67;;;7.32;;
19339;SDS011;9804;52.350;6.684;2023-11-19T08:44:13;45.72;;;6.50;;
19339;SDS011;9804;52.350;6.684;2023-11-19T08:46:38;51.38;;;6.47;;
19339;SDS011;9804;52.350;6.684;2023-11-19T08:49:04;45.95;;;7.32;;
19339;SDS011;9804;52.350;6.684;2023-11-19T08:51:30;45.28;;;6.60;;
19339;SDS011;9804;52.350;6.684;2023-11-19T08:53:56;43.42;;;8.18;;
19339;SDS011;9804;52.350;6.684;2023-11-19T08:56:22;40.28;;;7.13;;
19339;SDS011;9804;52.350;6.684;2023-11-19T08:58:48;44.60;;;6.50;;
19339;SDS011;9804;52.350;6.684;2023-11-19T09:01:15;37.75;;;6.38;;
19339;SDS011;9804;52.350;6.684;2023-11-19T09:03:41;40.15;;;7.97;;
19339;SDS011;9804;52.350;6.684;2023-11-19T09:06:06;46.10;;;7.32;;
19339;SDS011;9804;52.350;6.684;2023-11-19T09:08:32;41.38;;;6.40;;
19339;SDS011;9804;52.350;6.684;2023-11-19T09:10:57;42.97;;;6.93;;
19339;SDS011;9804;52.350;6.684;2023-11-19T09:13:23;39.00;;;6.63;;
19339;SDS011;9804;52.350;6.684;2023-11-19T09:15:48;40.55;;;6.35;;
19339;SDS011;9804;52.350;6.684;2023-11-19T09:18:13;35.40;;;5.97;;
19339;SDS011;9804;52.350;6.684;2023-11-19T09:20:39;41.13;;;6.15;;
19339;SDS011;9804;52.350;6.684;2023-11-19T09:23:05;38.50;;;6.63;;
19339;SDS011;9804;52.350;6.684;2023-11-19T09:25:31;42.35;;;6.38;;
19339;SDS011;9804;52.350;6.684;2023-11-19T09:27:56;50.10;;;6.88;;
19339;SDS011;9804;52.350;6.684;2023-11-19T09:30:21;39.10;;;6.65;;
19339;SDS011;9804;52.350;6.684;2023-11-19T09:32:47;38.92;;;6.32;;
19339;SDS011;9804;52.350;6.684;2023-11-19T09:35:13;40.45;;;6.35;;
19339;SDS011;9804;52.350;6.684;2023-11-19T09:37:39;44.78;;;6.80;;
19339;SDS011;9804;52.350;6.684;2023-11-19T09:40:05;46.95;;;7.38;;
19339;SDS011;9804;52.350;6.684;2023-11-19T09:42:35;41.17;;;5.90;;
19339;SDS011;9804;52.350;6.684;2023-11-19T09:45:11;44.22;;;7.32;;
19339;SDS011;9804;52.350;6.684;2023-11-19T09:47:40;47.17;;;6.38;;
19339;SDS011;9804;52.350;6.684;2023-11-19T09:50:11;39.58;;;5.90;;
19339;SDS011;9804;52.350;6.684;2023-11-19T09:52:41;43.53;;;6.18;;
19339;SDS011;9804;52.350;6.684;2023-11-19T09:55:07;46.78;;;7.20;;
19339;SDS011;9804;52.350;6.684;2023-11-19T09:57:32;42.97;;;6.88;;
19339;SDS011;9804;52.350;6.684;2023-11-19T10:00:02;40.33;;;6.82;;
19339;SDS011;9804;52.350;6.684;2023-11-19T10:02:29;38.83;;;7.28;;
19339;SDS011;9804;52.350;6.684;2023-11-19T10:04:58;43.15;;;7.05;;
19339;SDS011;9804;52.350;6.684;2023-11-19T10:07:24;39.67;;;6.60;;
19339;SDS011;9804;52.350;6.684;2023-11-19T10:09:50;44.55;;;7.60;;
19339;SDS011;9804;52.350;6.684;2023-11-19T10:12:15;46.88;;;6.30;;
19339;SDS011;9804;52.350;6.684;2023-11-19T10:14:41;48.97;;;7.18;;
19339;SDS011;9804;52.350;6.684;2023-11-19T10:17:08;38.13;;;5.75;;
19339;SDS011;9804;52.350;6.684;2023-11-19T10:19:34;37.78;;;6.72;;
19339;SDS011;9804;52.350;6.684;2023-11-19T10:22:06;43.35;;;6.72;;
19339;SDS011;9804;52.350;6.684;2023-11-19T10:24:32;37.67;;;6.05;;
19339;SDS011;9804;52.350;6.684;2023-11-19T10:26:59;36.67;;;5.63;;
19339;SDS011;9804;52.350;6.684;2023-11-19T10:29:24;41.28;;;6.55;;
19339;SDS011;9804;52.350;6.684;2023-11-19T10:31:56;41.40;;;7.32;;
19339;SDS011;9804;52.350;6.684;2023-11-19T10:34:25;34.53;;;6.93;;
19339;SDS011;9804;52.350;6.684;2023-11-19T10:36:52;44.30;;;6.95;;
19339;SDS011;9804;52.350;6.684;2023-11-19T10:39:17;42.45;;;7.25;;
19339;SDS011;9804;52.350;6.684;2023-11-19T10:41:43;39.40;;;6.50;;
19339;SDS011;9804;52.350;6.684;2023-11-19T10:44:08;26.67;;;5.40;;
19339;SDS011;9804;52.350;6.684;2023-11-19T10:46:41;38.40;;;5.95;;
19339;SDS011;9804;52.350;6.684;2023-11-19T10:49:08;36.78;;;6.25;;
19339;SDS011;9804;52.350;6.684;2023-11-19T10:51:34;38.15;;;6.20;;
19339;SDS011;9804;52.350;6.684;2023-11-19T10:54:03;38.90;;;5.85;;
19339;SDS011;9804;52.350;6.684;2023-11-19T10:56:33;36.53;;;5.65;;
19339;SDS011;9804;52.350;6.684;2023-11-19T10:58:59;29.33;;;5.32;;
19339;SDS011;9804;52.350;6.684;2023-11-19T11:01:35;45.72;;;6.72;;
19339;SDS011;9804;52.350;6.684;2023-11-19T11:04:10;36.72;;;5.88;;
19339;SDS011;9804;52.350;6.684;2023-11-19T11:06:40;43.22;;;6.60;;
19339;SDS011;9804;52.350;6.684;2023-11-19T11:09:06;34.70;;;5.80;;
19339;SDS011;9804;52.350;6.684;2023-11-19T11:11:37;33.88;;;5.78;;
19339;SDS011;9804;52.350;6.684;2023-11-19T11:14:03;35.35;;;5.95;;
19339;SDS011;9804;52.350;6.684;2023-11-19T11:16:31;35.25;;;5.75;;
19339;SDS011;9804;52.350;6.684;2023-11-19T11:18:56;35.63;;;6.43;;
19339;SDS011;9804;52.350;6.684;2023-11-19T11:21:23;32.40;;;5.45;;
19339;SDS011;9804;52.350;6.684;2023-11-19T11:24:09;35.97;;;5.72;;
19339;SDS011;9804;52.350;6.684;2023-11-19T11:26:52;37.85;;;6.10;;
19339;SDS011;9804;52.350;6.684;2023-11-19T11:35:24;34.22;;;6.00;;
19339;SDS011;9804;52.350;6.684;2023-11-19T11:37:50;40.85;;;6.38;;
19339;SDS011;9804;52.350;6.684;2023-11-19T11:40:24;32.42;;;5.75;;
19339;SDS011;9804;52.350;6.684;2023-11-19T11:42:51;35.40;;;6.00;;
19339;SDS011;9804;52.350;6.684;2023-11-19T11:45:17;35.72;;;5.95;;
19339;SDS011;9804;52.350;6.684;2023-11-19T11:55:24;31.02;;;5.22;;
19339;SDS011;9804;52.350;6.684;2023-11-19T11:57:50;33.20;;;5.05;;
19339;SDS011;9804;52.350;6.684;2023-11-19T12:00:38;33.22;;;5.93;;
19339;SDS011;9804;52.350;6.684;2023-11-19T12:03:03;32.67;;;5.63;;
19339;SDS011;9804;52.350;6.684;2023-11-19T12:05:44;30.35;;;6.03;;
19339;SDS011;9804;52.350;6.684;2023-11-19T12:08:11;32.40;;;5.88;;
19339;SDS011;9804;52.350;6.684;2023-11-19T12:10:46;29.83;;;5.30;;
19339;SDS011;9804;52.350;6.684;2023-11-19T12:13:14;32.00;;;4.95;;
19339;SDS011;9804;52.350;6.684;2023-11-19T12:18:22;35.17;;;5.20;;
19339;SDS011;9804;52.350;6.684;2023-11-19T12:20:49;31.25;;;5.35;;
19339;SDS011;9804;52.350;6.684;2023-11-19T12:23:15;29.60;;;6.05;;
19339;SDS011;9804;52.350;6.684;2023-11-19T12:25:40;48.60;;;5.97;;
19339;SDS011;9804;52.350;6.684;2023-11-19T12:28:11;40.08;;;6.35;;
19339;SDS011;9804;52.350;6.684;2023-11-19T12:30:38;32.83;;;4.38;;
19339;SDS011;9804;52.350;6.684;2023-11-19T12:33:07;35.33;;;4.95;;
19339;SDS011;9804;52.350;6.684;2023-11-19T12:35:38;26.85;;;4.70;;
19339;SDS011;9804;52.350;6.684;2023-11-19T12:38:08;36.70;;;5.03;;
19339;SDS011;9804;52.350;6.684;2023-11-19T12:40:43;32.13;;;5.57;;
19339;SDS011;9804;52.350;6.684;2023-11-19T12:43:08;36.58;;;5.70;;
19339;SDS011;9804;52.350;6.684;2023-11-19T12:45:34;34.88;;;5.90;;
19339;SDS011;9804;52.350;6.684;2023-11-19T12:48:08;48.60;;;7.38;;
19339;SDS011;9804;52.350;6.684;2023-11-19T12:50:52;32.80;;;5.70;;
19339;SDS011;9804;52.350;6.684;2023-11-19T12:53:19;35.88;;;6.45;;
19339;SDS011;9804;52.350;6.684;2023-11-19T12:55:45;35.55;;;5.65;;
19339;SDS011;9804;52.350;6.684;2023-11-19T12:58:10;43.88;;;5.88;;
19339;SDS011;9804;52.350;6.684;2023-11-19T13:00:58;47.40;;;6.30;;
19339;SDS011;9804;52.350;6.684;2023-11-19T13:03:37;38.25;;;5.70;;
19339;SDS011;9804;52.350;6.684;2023-11-19T13:06:07;45.78;;;5.85;;
19339;SDS011;9804;52.350;6.684;2023-11-19T13:08:38;41.83;;;6.03;;
19339;SDS011;9804;52.350;6.684;2023-11-19T13:11:11;39.97;;;6.63;;
19339;SDS011;9804;52.350;6.684;2023-11-19T13:13:56;31.88;;;5.22;;
19339;SDS011;9804;52.350;6.684;2023-11-19T13:16:23;40.72;;;6.05;;
19339;SDS011;9804;52.350;6.684;2023-11-19T13:18:49;38.03;;;5.68;;
19339;SDS011;9804;52.350;6.684;2023-11-19T13:21:14;36.13;;;5.85;;
19339;SDS011;9804;52.350;6.684;2023-11-19T13:23:40;41.80;;;6.20;;
19339;SDS011;9804;52.350;6.684;2023-11-19T13:26:05;41.60;;;6.10;;
19339;SDS011;9804;52.350;6.684;2023-11-19T13:28:31;42.20;;;6.70;;
19339;SDS011;9804;52.350;6.684;2023-11-19T13:30:56;40.35;;;6.25;;
19339;SDS011;9804;52.350;6.684;2023-11-19T13:33:23;35.60;;;5.75;;
19339;SDS011;9804;52.350;6.684;2023-11-19T13:35:48;42.83;;;7.18;;
19339;SDS011;9804;52.350;6.684;2023-11-19T13:38:13;49.60;;;6.18;;
19339;SDS011;9804;52.350;6.684;2023-11-19T13:40:39;45.10;;;7.45;;
19339;SDS011;9804;52.350;6.684;2023-11-19T13:43:05;43.75;;;6.85;;
19339;SDS011;9804;52.350;6.684;2023-11-19T13:45:30;41.70;;;6.45;;
19339;SDS011;9804;52.350;6.684;2023-11-19T13:47:56;40.65;;;6.03;;
19339;SDS011;9804;52.350;6.684;2023-11-19T13:50:21;43.40;;;6.70;;
19339;SDS011;9804;52.350;6.684;2023-11-19T13:52:50;40.28;;;7.25;;
19339;SDS011;9804;52.350;6.684;2023-11-19T13:55:16;38.95;;;5.93;;
19339;SDS011;9804;52.350;6.684;2023-11-19T13:57:44;43.17;;;6.82;;
19339;SDS011;9804;52.350;6.684;2023-11-19T14:00:14;42.50;;;6.97;;
19339;SDS011;9804;52.350;6.684;2023-11-19T14:02:47;34.25;;;5.97;;
19339;SDS011;9804;52.350;6.684;2023-11-19T14:05:13;44.05;;;6.20;;
19339;SDS011;9804;52.350;6.684;2023-11-19T14:07:39;43.03;;;7.35;;
19339;SDS011;9804;52.350;6.684;2023-11-19T14:10:05;42.85;;;5.75;;
19339;SDS011;9804;52.350;6.684;2023-11-19T14:12:32;39.25;;;5.97;;
19339;SDS011;9804;52.350;6.684;2023-11-19T14:14:58;35.03;;;5.63;;
19339;SDS011;9804;52.350;6.684;2023-11-19T14:17:24;35.60;;;6.13;;
19339;SDS011;9804;52.350;6.684;2023-11-19T14:19:50;28.27;;;5.30;;
19339;SDS011;9804;52.350;6.684;2023-11-19T14:22:16;24.80;;;4.60;;
19339;SDS011;9804;52.350;6.684;2023-11-19T14:24:41;33.72;;;5.70;;
19339;SDS011;9804;52.350;6.684;2023-11-19T14:27:08;34.15;;;5.00;;
19339;SDS011;9804;52.350;6.684;2023-11-19T14:29:36;32.97;;;5.55;;
19339;SDS011;9804;52.350;6.684;2023-11-19T14:32:02;32.80;;;5.70;;
19339;SDS011;9804;52.350;6.684;2023-11-19T14:34:31;33.53;;;5.25;;
19339;SDS011;9804;52.350;6.684;2023-11-19T14:36:57;40.42;;;5.90;;
19339;SDS011;9804;52.350;6.684;2023-11-19T14:39:23;29.67;;;4.72;;
19339;SDS011;9804;52.350;6.684;2023-11-19T14:41:48;31.77;;;4.97;;
19339;SDS011;9804;52.350;6.684;2023-11-19T14:44:14;33.20;;;4.80;;
19339;SDS011;9804;52.350;6.684;2023-11-19T14:46:40;28.52;;;5.07;;
19339;SDS011;9804;52.350;6.684;2023-11-19T14:49:05;40.45;;;6.97;;
19339;SDS011;9804;52.350;6.684;2023-11-19T14:51:35;31.60;;;5.13;;
19339;SDS011;9804;52.350;6.684;2023-11-19T14:54:01;29.92;;;5.18;;
19339;SDS011;9804;52.350;6.684;2023-11-19T14:56:27;32.15;;;5.35;;
19339;SDS011;9804;52.350;6.684;2023-11-19T14:58:52;35.22;;;5.30;;